sensor_id;sensor_type;location;lat;lon;timestamp;P1;durP1;ratioP1;P2;durP2;ratioP2
26530;SDS011;14201;43.188;24.160;2022-11-15T00:01:46;14.15;;;10.45;;
26530;SDS011;14201;43.188;24.160;2022-11-15T00:04:12;14.05;;;10.63;;
26530;SDS011;14201;43.188;24.160;2022-11-15T00:06:38;14.10;;;10.80;;
26530;SDS011;14201;43.188;24.160;2022-11-15T00:09:03;14.80;;;10.23;;
26530;SDS011;14201;43.188;24.160;2022-11-15T00:11:29;14.95;;;11.43;;
26530;SDS011;14201;43.188;24.160;2022-11-15T00:13:55;13.98;;;10.40;;
26530;SDS011;14201;43.188;24.160;2022-11-15T00:16:21;11.82;;;9.35;;
26530;SDS011;14201;43.188;24.160;2022-11-15T00:18:47;13.85;;;10.55;;
26530;SDS011;14201;43.188;24.160;2022-11-15T00:21:13;14.57;;;11.07;;
26530;SDS011;14201;43.188;24.160;2022-11-15T00:23:39;18.88;;;12.27;;
26530;SDS011;14201;43.188;24.160;2022-11-15T00:26:05;15.07;;;11.90;;
26530;SDS011;14201;43.188;24.160;2022-11-15T00:28:31;15.18;;;11.70;;
26530;SDS011;14201;43.188;24.160;2022-11-15T00:31:03;15.73;;;11.77;;
26530;SDS011;14201;43.188;24.160;2022-11-15T00:33:31;17.38;;;12.95;;
26530;SDS011;14201;43.188;24.160;2022-11-15T00:36:04;17.27;;;12.13;;
26530;SDS011;14201;43.188;24.160;2022-11-15T00:38:32;15.77;;;11.70;;
26530;SDS011;14201;43.188;24.160;2022-11-15T00:40:58;14.30;;;11.27;;
26530;SDS011;14201;43.188;24.160;2022-11-15T00:43:25;14.68;;;11.05;;
26530;SDS011;14201;43.188;24.160;2022-11-15T00:45:50;14.65;;;11.15;;
26530;SDS011;14201;43.188;24.160;2022-11-15T00:48:16;17.20;;;11.52;;
26530;SDS011;14201;43.188;24.160;2022-11-15T00:50:41;15.68;;;11.57;;
26530;SDS011;14201;43.188;24.160;2022-11-15T00:53:07;17.17;;;12.07;;
26530;SDS011;14201;43.188;24.160;2022-11-15T00:55:32;15.77;;;11.35;;
26530;SDS011;14201;43.188;24.160;2022-11-15T00:57:58;12.73;;;10.07;;
26530;SDS011;14201;43.188;24.160;2022-11-15T01:00:24;17.23;;;10.43;;
26530;SDS011;14201;43.188;24.160;2022-11-15T01:02:49;13.77;;;10.07;;
26530;SDS011;14201;43.188;24.160;2022-11-15T01:05:15;11.40;;;8.45;;
26530;SDS011;14201;43.188;24.160;2022-11-15T01:07:40;12.43;;;8.60;;
26530;SDS011;14201;43.188;24.160;2022-11-15T01:10:06;12.65;;;9.32;;
26530;SDS011;14201;43.188;24.160;2022-11-15T01:12:32;12.75;;;8.10;;
26530;SDS011;14201;43.188;24.160;2022-11-15T01:14:58;14.20;;;9.13;;
26530;SDS011;14201;43.188;24.160;2022-11-15T01:17:24;14.25;;;9.93;;
26530;SDS011;14201;43.188;24.160;2022-11-15T01:19:50;13.80;;;9.63;;
26530;SDS011;14201;43.188;24.160;2022-11-15T01:22:15;13.40;;;9.10;;
26530;SDS011;14201;43.188;24.160;2022-11-15T01:24:41;11.52;;;8.20;;
26530;SDS011;14201;43.188;24.160;2022-11-15T01:27:07;12.18;;;8.93;;
26530;SDS011;14201;43.188;24.160;2022-11-15T01:29:33;14.95;;;8.82;;
26530;SDS011;14201;43.188;24.160;2022-11-15T01:31:59;12.57;;;8.73;;
26530;SDS011;14201;43.188;24.160;2022-11-15T01:34:24;12.32;;;8.55;;
26530;SDS011;14201;43.188;24.160;2022-11-15T01:36:50;11.38;;;8.35;;
26530;SDS011;14201;43.188;24.160;2022-11-15T01:39:15;11.13;;;7.68;;
26530;SDS011;14201;43.188;24.160;2022-11-15T01:41:42;9.52;;;7.30;;
26530;SDS011;14201;43.188;24.160;2022-11-15T01:44:31;10.68;;;8.18;;
26530;SDS011;14201;43.188;24.160;2022-11-15T01:47:01;10.95;;;8.57;;
26530;SDS011;14201;43.188;24.160;2022-11-15T01:49:30;14.33;;;8.40;;
26530;SDS011;14201;43.188;24.160;2022-11-15T01:51:59;11.82;;;9.00;;
26530;SDS011;14201;43.188;24.160;2022-11-15T01:54:26;11.77;;;8.43;;
26530;SDS011;14201;43.188;24.160;2022-11-15T01:56:57;12.15;;;8.68;;
26530;SDS011;14201;43.188;24.160;2022-11-15T01:59:27;11.55;;;8.27;;
26530;SDS011;14201;43.188;24.160;2022-11-15T02:01:53;10.32;;;8.38;;
26530;SDS011;14201;43.188;24.160;2022-11-15T02:04:20;9.73;;;7.45;;
26530;SDS011;14201;43.188;24.160;2022-11-15T02:06:52;10.70;;;7.95;;
26530;SDS011;14201;43.188;24.160;2022-11-15T02:09:18;9.75;;;7.05;;
26530;SDS011;14201;43.188;24.160;2022-11-15T02:11:44;10.52;;;8.23;;
26530;SDS011;14201;43.188;24.160;2022-11-15T02:14:12;9.68;;;7.18;;
26530;SDS011;14201;43.188;24.160;2022-11-15T02:19:28;10.63;;;8.07;;
26530;SDS011;14201;43.188;24.160;2022-11-15T02:22:04;10.90;;;7.68;;
26530;SDS011;14201;43.188;24.160;2022-11-15T02:42:08;11.23;;;8.13;;
26530;SDS011;14201;43.188;24.160;2022-11-15T02:44:58;11.90;;;7.35;;
26530;SDS011;14201;43.188;24.160;2022-11-15T02:47:31;12.30;;;8.02;;
26530;SDS011;14201;43.188;24.160;2022-11-15T02:50:05;11.48;;;7.93;;
26530;SDS011;14201;43.188;24.160;2022-11-15T02:52:35;13.18;;;7.97;;
26530;SDS011;14201;43.188;24.160;2022-11-15T02:55:01;11.02;;;7.55;;
26530;SDS011;14201;43.188;24.160;2022-11-15T03:00:19;12.23;;;7.45;;
26530;SDS011;14201;43.188;24.160;2022-11-15T03:11:17;10.30;;;7.57;;
26530;SDS011;14201;43.188;24.160;2022-11-15T03:13:47;11.05;;;7.22;;
26530;SDS011;14201;43.188;24.160;2022-11-15T03:16:20;10.38;;;7.53;;
26530;SDS011;14201;43.188;24.160;2022-11-15T03:18:52;10.07;;;6.97;;
26530;SDS011;14201;43.188;24.160;2022-11-15T03:21:21;10.45;;;6.80;;
26530;SDS011;14201;43.188;24.160;2022-11-15T03:23:48;11.07;;;7.28;;
26530;SDS011;14201;43.188;24.160;2022-11-15T03:26:16;9.77;;;6.63;;
26530;SDS011;14201;43.188;24.160;2022-11-15T03:28:55;10.95;;;7.43;;
26530;SDS011;14201;43.188;24.160;2022-11-15T03:31:26;13.02;;;7.25;;
26530;SDS011;14201;43.188;24.160;2022-11-15T03:34:15;10.30;;;7.05;;
26530;SDS011;14201;43.188;24.160;2022-11-15T03:36:51;9.85;;;7.03;;
26530;SDS011;14201;43.188;24.160;2022-11-15T03:39:17;10.52;;;7.35;;
26530;SDS011;14201;43.188;24.160;2022-11-15T03:44:27;10.40;;;7.28;;
26530;SDS011;14201;43.188;24.160;2022-11-15T03:47:16;11.52;;;7.30;;
26530;SDS011;14201;43.188;24.160;2022-11-15T03:49:56;10.73;;;6.90;;
26530;SDS011;14201;43.188;24.160;2022-11-15T03:52:26;11.00;;;7.15;;
26530;SDS011;14201;43.188;24.160;2022-11-15T03:54:58;9.48;;;6.82;;
26530;SDS011;14201;43.188;24.160;2022-11-15T03:57:26;11.82;;;7.30;;
26530;SDS011;14201;43.188;24.160;2022-11-15T03:59:51;11.60;;;7.43;;
26530;SDS011;14201;43.188;24.160;2022-11-15T04:02:20;8.55;;;6.47;;
26530;SDS011;14201;43.188;24.160;2022-11-15T04:04:45;11.00;;;6.50;;
26530;SDS011;14201;43.188;24.160;2022-11-15T04:07:11;10.15;;;6.85;;
26530;SDS011;14201;43.188;24.160;2022-11-15T04:09:37;9.15;;;6.40;;
26530;SDS011;14201;43.188;24.160;2022-11-15T04:12:21;8.07;;;5.88;;
26530;SDS011;14201;43.188;24.160;2022-11-15T04:15:17;9.52;;;6.50;;
26530;SDS011;14201;43.188;24.160;2022-11-15T04:17:43;9.98;;;6.47;;
26530;SDS011;14201;43.188;24.160;2022-11-15T04:20:12;9.95;;;6.68;;
26530;SDS011;14201;43.188;24.160;2022-11-15T04:22:59;8.15;;;5.97;;
26530;SDS011;14201;43.188;24.160;2022-11-15T04:25:45;8.20;;;5.47;;
26530;SDS011;14201;43.188;24.160;2022-11-15T04:28:12;8.10;;;5.50;;
26530;SDS011;14201;43.188;24.160;2022-11-15T04:30:38;7.78;;;5.30;;
26530;SDS011;14201;43.188;24.160;2022-11-15T04:33:04;8.38;;;6.05;;
26530;SDS011;14201;43.188;24.160;2022-11-15T04:35:29;8.23;;;5.75;;
26530;SDS011;14201;43.188;24.160;2022-11-15T04:37:55;8.27;;;5.53;;
26530;SDS011;14201;43.188;24.160;2022-11-15T04:40:22;7.72;;;5.72;;
26530;SDS011;14201;43.188;24.160;2022-11-15T04:42:48;9.38;;;6.03;;
26530;SDS011;14201;43.188;24.160;2022-11-15T04:45:13;9.77;;;6.13;;
26530;SDS011;14201;43.188;24.160;2022-11-15T04:47:39;9.15;;;6.70;;
26530;SDS011;14201;43.188;24.160;2022-11-15T04:50:05;7.70;;;6.00;;
26530;SDS011;14201;43.188;24.160;2022-11-15T04:52:31;9.02;;;6.22;;
26530;SDS011;14201;43.188;24.160;2022-11-15T04:54:57;10.35;;;6.90;;
26530;SDS011;14201;43.188;24.160;2022-11-15T04:57:22;9.25;;;6.47;;
26530;SDS011;14201;43.188;24.160;2022-11-15T04:59:48;8.45;;;5.93;;
26530;SDS011;14201;43.188;24.160;2022-11-15T05:02:14;8.85;;;5.85;;
26530;SDS011;14201;43.188;24.160;2022-11-15T05:04:39;10.00;;;6.43;;
26530;SDS011;14201;43.188;24.160;2022-11-15T05:07:05;10.52;;;6.28;;
26530;SDS011;14201;43.188;24.160;2022-11-15T05:09:30;10.23;;;6.70;;
26530;SDS011;14201;43.188;24.160;2022-11-15T05:11:56;8.13;;;5.57;;
26530;SDS011;14201;43.188;24.160;2022-11-15T05:14:22;7.35;;;5.72;;
26530;SDS011;14201;43.188;24.160;2022-11-15T05:16:47;9.75;;;6.00;;
26530;SDS011;14201;43.188;24.160;2022-11-15T05:19:14;8.57;;;6.03;;
26530;SDS011;14201;43.188;24.160;2022-11-15T05:21:39;9.32;;;6.40;;
26530;SDS011;14201;43.188;24.160;2022-11-15T05:24:05;8.98;;;6.50;;
26530;SDS011;14201;43.188;24.160;2022-11-15T05:26:31;9.32;;;6.43;;
26530;SDS011;14201;43.188;24.160;2022-11-15T05:28:58;9.15;;;6.05;;
26530;SDS011;14201;43.188;24.160;2022-11-15T05:31:24;9.63;;;6.53;;
26530;SDS011;14201;43.188;24.160;2022-11-15T05:33:51;8.30;;;6.18;;
26530;SDS011;14201;43.188;24.160;2022-11-15T05:39:04;12.40;;;9.63;;
26530;SDS011;14201;43.188;24.160;2022-11-15T05:41:35;14.70;;;10.27;;
26530;SDS011;14201;43.188;24.160;2022-11-15T05:44:05;7.82;;;5.65;;
26530;SDS011;14201;43.188;24.160;2022-11-15T05:46:34;8.98;;;5.28;;
26530;SDS011;14201;43.188;24.160;2022-11-15T05:49:01;9.05;;;6.00;;
26530;SDS011;14201;43.188;24.160;2022-11-15T05:51:27;8.75;;;6.57;;
26530;SDS011;14201;43.188;24.160;2022-11-15T05:53:55;8.93;;;5.30;;
26530;SDS011;14201;43.188;24.160;2022-11-15T05:56:23;8.20;;;6.10;;
26530;SDS011;14201;43.188;24.160;2022-11-15T05:58:51;9.15;;;6.07;;
26530;SDS011;14201;43.188;24.160;2022-11-15T06:01:18;8.63;;;6.03;;
26530;SDS011;14201;43.188;24.160;2022-11-15T06:03:44;10.27;;;6.15;;
26530;SDS011;14201;43.188;24.160;2022-11-15T06:06:09;8.57;;;5.75;;
26530;SDS011;14201;43.188;24.160;2022-11-15T06:08:35;8.05;;;5.47;;
26530;SDS011;14201;43.188;24.160;2022-11-15T06:11:06;9.07;;;5.72;;
26530;SDS011;14201;43.188;24.160;2022-11-15T06:13:33;9.80;;;6.18;;
26530;SDS011;14201;43.188;24.160;2022-11-15T06:15:59;7.93;;;5.53;;
26530;SDS011;14201;43.188;24.160;2022-11-15T06:18:24;9.52;;;6.00;;
26530;SDS011;14201;43.188;24.160;2022-11-15T06:20:50;8.88;;;6.13;;
26530;SDS011;14201;43.188;24.160;2022-11-15T06:23:16;8.90;;;6.47;;
26530;SDS011;14201;43.188;24.160;2022-11-15T06:25:42;9.52;;;6.25;;
26530;SDS011;14201;43.188;24.160;2022-11-15T06:28:07;10.73;;;6.28;;
26530;SDS011;14201;43.188;24.160;2022-11-15T06:30:33;8.85;;;5.97;;
26530;SDS011;14201;43.188;24.160;2022-11-15T06:33:02;9.05;;;5.97;;
26530;SDS011;14201;43.188;24.160;2022-11-15T06:37:56;9.10;;;6.25;;
26530;SDS011;14201;43.188;24.160;2022-11-15T06:40:32;10.43;;;6.50;;
26530;SDS011;14201;43.188;24.160;2022-11-15T06:43:03;10.60;;;6.35;;
26530;SDS011;14201;43.188;24.160;2022-11-15T06:45:29;9.82;;;6.55;;
26530;SDS011;14201;43.188;24.160;2022-11-15T06:47:55;10.90;;;7.38;;
26530;SDS011;14201;43.188;24.160;2022-11-15T06:50:21;10.85;;;7.28;;
26530;SDS011;14201;43.188;24.160;2022-11-15T06:52:47;11.68;;;7.95;;
26530;SDS011;14201;43.188;24.160;2022-11-15T06:55:12;12.40;;;7.85;;
26530;SDS011;14201;43.188;24.160;2022-11-15T06:57:45;13.93;;;8.77;;
26530;SDS011;14201;43.188;24.160;2022-11-15T07:00:16;14.48;;;8.27;;
26530;SDS011;14201;43.188;24.160;2022-11-15T07:02:43;13.23;;;8.55;;
26530;SDS011;14201;43.188;24.160;2022-11-15T07:05:09;14.00;;;8.95;;
26530;SDS011;14201;43.188;24.160;2022-11-15T07:07:36;14.10;;;8.10;;
26530;SDS011;14201;43.188;24.160;2022-11-15T07:10:01;13.43;;;8.88;;
26530;SDS011;14201;43.188;24.160;2022-11-15T07:12:27;13.00;;;9.05;;
26530;SDS011;14201;43.188;24.160;2022-11-15T07:14:53;12.93;;;9.30;;
26530;SDS011;14201;43.188;24.160;2022-11-15T07:17:18;12.93;;;8.73;;
26530;SDS011;14201;43.188;24.160;2022-11-15T07:19:44;13.45;;;8.38;;
26530;SDS011;14201;43.188;24.160;2022-11-15T07:22:09;12.95;;;8.75;;
26530;SDS011;14201;43.188;24.160;2022-11-15T07:24:35;14.75;;;9.40;;
26530;SDS011;14201;43.188;24.160;2022-11-15T07:27:01;12.93;;;9.05;;
26530;SDS011;14201;43.188;24.160;2022-11-15T07:29:26;12.68;;;8.88;;
26530;SDS011;14201;43.188;24.160;2022-11-15T07:31:52;13.13;;;8.70;;
26530;SDS011;14201;43.188;24.160;2022-11-15T07:34:17;11.80;;;7.90;;
26530;SDS011;14201;43.188;24.160;2022-11-15T07:36:43;11.82;;;7.65;;
26530;SDS011;14201;43.188;24.160;2022-11-15T07:39:09;14.50;;;7.80;;
26530;SDS011;14201;43.188;24.160;2022-11-15T07:41:35;10.70;;;7.68;;
26530;SDS011;14201;43.188;24.160;2022-11-15T07:44:01;11.50;;;7.93;;
26530;SDS011;14201;43.188;24.160;2022-11-15T07:46:26;12.90;;;7.90;;
26530;SDS011;14201;43.188;24.160;2022-11-15T07:48:52;10.65;;;7.97;;
26530;SDS011;14201;43.188;24.160;2022-11-15T07:51:18;12.75;;;8.77;;
26530;SDS011;14201;43.188;24.160;2022-11-15T07:53:44;10.70;;;7.88;;
26530;SDS011;14201;43.188;24.160;2022-11-15T07:56:10;11.65;;;8.27;;
26530;SDS011;14201;43.188;24.160;2022-11-15T07:58:36;10.55;;;7.78;;
26530;SDS011;14201;43.188;24.160;2022-11-15T08:01:03;10.07;;;7.88;;
26530;SDS011;14201;43.188;24.160;2022-11-15T08:03:32;8.75;;;6.20;;
26530;SDS011;14201;43.188;24.160;2022-11-15T08:05:58;9.20;;;6.88;;
26530;SDS011;14201;43.188;24.160;2022-11-15T08:08:23;11.23;;;7.18;;
26530;SDS011;14201;43.188;24.160;2022-11-15T08:10:49;8.80;;;6.95;;
26530;SDS011;14201;43.188;24.160;2022-11-15T08:13:15;8.75;;;6.80;;
26530;SDS011;14201;43.188;24.160;2022-11-15T08:15:41;7.63;;;6.20;;
26530;SDS011;14201;43.188;24.160;2022-11-15T08:18:14;10.38;;;6.35;;
26530;SDS011;14201;43.188;24.160;2022-11-15T08:20:41;9.93;;;6.40;;
26530;SDS011;14201;43.188;24.160;2022-11-15T08:23:08;11.35;;;7.28;;
26530;SDS011;14201;43.188;24.160;2022-11-15T08:25:36;9.10;;;6.95;;
26530;SDS011;14201;43.188;24.160;2022-11-15T08:28:03;9.18;;;7.47;;
26530;SDS011;14201;43.188;24.160;2022-11-15T08:30:33;9.80;;;7.30;;
26530;SDS011;14201;43.188;24.160;2022-11-15T08:33:01;10.27;;;8.02;;
26530;SDS011;14201;43.188;24.160;2022-11-15T08:35:27;12.23;;;8.30;;
26530;SDS011;14201;43.188;24.160;2022-11-15T08:37:53;12.00;;;7.97;;
26530;SDS011;14201;43.188;24.160;2022-11-15T08:40:19;11.27;;;8.35;;
26530;SDS011;14201;43.188;24.160;2022-11-15T08:42:46;11.02;;;8.00;;
26530;SDS011;14201;43.188;24.160;2022-11-15T08:45:12;12.98;;;8.55;;
26530;SDS011;14201;43.188;24.160;2022-11-15T08:47:38;11.82;;;8.30;;
26530;SDS011;14201;43.188;24.160;2022-11-15T08:50:04;10.05;;;7.57;;
26530;SDS011;14201;43.188;24.160;2022-11-15T08:52:30;11.65;;;8.00;;
26530;SDS011;14201;43.188;24.160;2022-11-15T08:54:56;10.70;;;7.85;;
26530;SDS011;14201;43.188;24.160;2022-11-15T08:57:22;11.38;;;7.78;;
26530;SDS011;14201;43.188;24.160;2022-11-15T08:59:48;9.82;;;7.57;;
26530;SDS011;14201;43.188;24.160;2022-11-15T09:02:14;11.57;;;7.03;;
26530;SDS011;14201;43.188;24.160;2022-11-15T09:04:41;9.75;;;7.25;;
26530;SDS011;14201;43.188;24.160;2022-11-15T09:07:08;9.23;;;7.38;;
26530;SDS011;14201;43.188;24.160;2022-11-15T09:09:37;9.80;;;7.20;;
26530;SDS011;14201;43.188;24.160;2022-11-15T09:12:03;8.90;;;6.88;;
26530;SDS011;14201;43.188;24.160;2022-11-15T09:14:30;10.07;;;7.75;;
26530;SDS011;14201;43.188;24.160;2022-11-15T09:16:56;10.13;;;6.90;;
26530;SDS011;14201;43.188;24.160;2022-11-15T09:19:23;11.45;;;7.82;;
26530;SDS011;14201;43.188;24.160;2022-11-15T09:21:49;10.02;;;7.00;;
26530;SDS011;14201;43.188;24.160;2022-11-15T09:24:15;9.88;;;6.82;;
26530;SDS011;14201;43.188;24.160;2022-11-15T09:26:40;9.55;;;6.90;;
26530;SDS011;14201;43.188;24.160;2022-11-15T09:29:06;10.25;;;7.18;;
26530;SDS011;14201;43.188;24.160;2022-11-15T09:31:32;10.15;;;7.43;;
26530;SDS011;14201;43.188;24.160;2022-11-15T09:33:58;9.65;;;7.05;;
26530;SDS011;14201;43.188;24.160;2022-11-15T09:36:23;9.35;;;7.13;;
26530;SDS011;14201;43.188;24.160;2022-11-15T09:38:49;9.60;;;6.82;;
26530;SDS011;14201;43.188;24.160;2022-11-15T09:46:33;10.02;;;6.90;;
26530;SDS011;14201;43.188;24.160;2022-11-15T09:49:01;8.82;;;7.25;;
26530;SDS011;14201;43.188;24.160;2022-11-15T09:51:38;9.15;;;6.90;;
26530;SDS011;14201;43.188;24.160;2022-11-15T09:54:21;8.73;;;6.88;;
26530;SDS011;14201;43.188;24.160;2022-11-15T09:57:18;9.18;;;7.07;;
26530;SDS011;14201;43.188;24.160;2022-11-15T10:00:01;10.20;;;7.40;;
26530;SDS011;14201;43.188;24.160;2022-11-15T10:02:43;10.30;;;7.18;;
26530;SDS011;14201;43.188;24.160;2022-11-15T10:05:23;9.05;;;6.78;;
26530;SDS011;14201;43.188;24.160;2022-11-15T10:10:34;9.07;;;7.35;;
26530;SDS011;14201;43.188;24.160;2022-11-15T10:13:03;8.65;;;6.70;;
26530;SDS011;14201;43.188;24.160;2022-11-15T10:15:29;10.15;;;6.70;;
26530;SDS011;14201;43.188;24.160;2022-11-15T10:20:41;9.15;;;6.47;;
26530;SDS011;14201;43.188;24.160;2022-11-15T10:23:17;10.30;;;6.50;;
26530;SDS011;14201;43.188;24.160;2022-11-15T10:25:44;7.80;;;6.35;;
26530;SDS011;14201;43.188;24.160;2022-11-15T10:30:37;7.22;;;5.80;;
26530;SDS011;14201;43.188;24.160;2022-11-15T10:33:18;8.40;;;5.57;;
26530;SDS011;14201;43.188;24.160;2022-11-15T10:41:22;8.00;;;5.93;;
26530;SDS011;14201;43.188;24.160;2022-11-15T10:46:32;8.13;;;5.88;;
26530;SDS011;14201;43.188;24.160;2022-11-15T10:49:32;7.35;;;5.80;;
26530;SDS011;14201;43.188;24.160;2022-11-15T10:51:56;6.28;;;5.20;;
26530;SDS011;14201;43.188;24.160;2022-11-15T10:54:27;7.10;;;5.68;;
26530;SDS011;14201;43.188;24.160;2022-11-15T10:56:54;7.70;;;5.70;;
26530;SDS011;14201;43.188;24.160;2022-11-15T10:59:28;8.85;;;6.05;;
26530;SDS011;14201;43.188;24.160;2022-11-15T11:01:56;6.95;;;5.95;;
26530;SDS011;14201;43.188;24.160;2022-11-15T11:04:23;6.95;;;6.05;;
26530;SDS011;14201;43.188;24.160;2022-11-15T11:06:50;8.48;;;6.75;;
26530;SDS011;14201;43.188;24.160;2022-11-15T11:12:03;8.27;;;5.97;;
26530;SDS011;14201;43.188;24.160;2022-11-15T11:14:35;8.23;;;5.82;;
26530;SDS011;14201;43.188;24.160;2022-11-15T11:17:03;8.20;;;6.20;;
26530;SDS011;14201;43.188;24.160;2022-11-15T11:25:15;7.45;;;6.00;;
26530;SDS011;14201;43.188;24.160;2022-11-15T11:35:51;9.77;;;7.35;;
26530;SDS011;14201;43.188;24.160;2022-11-15T11:42:17;9.20;;;6.45;;
26530;SDS011;14201;43.188;24.160;2022-11-15T11:47:40;9.60;;;7.47;;
26530;SDS011;14201;43.188;24.160;2022-11-15T11:58:14;10.07;;;6.70;;
26530;SDS011;14201;43.188;24.160;2022-11-15T12:00:47;7.43;;;6.10;;
26530;SDS011;14201;43.188;24.160;2022-11-15T12:07:02;8.52;;;6.72;;
26530;SDS011;14201;43.188;24.160;2022-11-15T12:09:07;12.38;;;7.43;;
26530;SDS011;14201;43.188;24.160;2022-11-15T12:17:34;9.80;;;7.28;;
26530;SDS011;14201;43.188;24.160;2022-11-15T12:20:13;11.38;;;7.95;;
26530;SDS011;14201;43.188;24.160;2022-11-15T12:33:45;9.35;;;7.40;;
26530;SDS011;14201;43.188;24.160;2022-11-15T12:41:34;9.88;;;7.80;;
26530;SDS011;14201;43.188;24.160;2022-11-15T12:44:02;10.95;;;9.65;;
26530;SDS011;14201;43.188;24.160;2022-11-15T12:49:10;10.88;;;9.35;;
26530;SDS011;14201;43.188;24.160;2022-11-15T13:02:44;11.98;;;10.20;;
26530;SDS011;14201;43.188;24.160;2022-11-15T13:17:50;10.98;;;9.55;;
26530;SDS011;14201;43.188;24.160;2022-11-15T13:20:26;11.05;;;9.30;;
26530;SDS011;14201;43.188;24.160;2022-11-15T13:23:13;10.75;;;9.10;;
26530;SDS011;14201;43.188;24.160;2022-11-15T13:25:45;11.55;;;9.50;;
26530;SDS011;14201;43.188;24.160;2022-11-15T13:31:26;10.48;;;9.27;;
26530;SDS011;14201;43.188;24.160;2022-11-15T13:34:02;14.38;;;10.52;;
26530;SDS011;14201;43.188;24.160;2022-11-15T13:36:40;9.80;;;8.80;;
26530;SDS011;14201;43.188;24.160;2022-11-15T13:39:12;11.38;;;9.85;;
26530;SDS011;14201;43.188;24.160;2022-11-15T13:41:51;11.25;;;8.85;;
26530;SDS011;14201;43.188;24.160;2022-11-15T13:44:21;11.25;;;9.05;;
26530;SDS011;14201;43.188;24.160;2022-11-15T13:46:48;10.85;;;8.82;;
26530;SDS011;14201;43.188;24.160;2022-11-15T13:49:28;10.95;;;7.90;;
26530;SDS011;14201;43.188;24.160;2022-11-15T13:51:56;12.35;;;9.45;;
26530;SDS011;14201;43.188;24.160;2022-11-15T13:54:45;9.38;;;8.38;;
26530;SDS011;14201;43.188;24.160;2022-11-15T13:57:14;12.02;;;9.43;;
26530;SDS011;14201;43.188;24.160;2022-11-15T13:59:48;11.13;;;9.20;;
26530;SDS011;14201;43.188;24.160;2022-11-15T14:02:21;10.35;;;9.23;;
26530;SDS011;14201;43.188;24.160;2022-11-15T14:04:55;10.90;;;9.25;;
26530;SDS011;14201;43.188;24.160;2022-11-15T14:07:24;10.73;;;9.30;;
26530;SDS011;14201;43.188;24.160;2022-11-15T14:09:52;11.40;;;9.18;;
26530;SDS011;14201;43.188;24.160;2022-11-15T14:12:28;9.48;;;7.88;;
26530;SDS011;14201;43.188;24.160;2022-11-15T14:15:00;9.52;;;8.52;;
26530;SDS011;14201;43.188;24.160;2022-11-15T14:17:47;11.82;;;8.18;;
26530;SDS011;14201;43.188;24.160;2022-11-15T14:22:51;9.52;;;7.63;;
26530;SDS011;14201;43.188;24.160;2022-11-15T14:25:19;10.95;;;8.77;;
26530;SDS011;14201;43.188;24.160;2022-11-15T14:30:49;11.48;;;9.25;;
26530;SDS011;14201;43.188;24.160;2022-11-15T14:33:18;14.23;;;10.07;;
26530;SDS011;14201;43.188;24.160;2022-11-15T14:38:31;11.25;;;10.05;;
26530;SDS011;14201;43.188;24.160;2022-11-15T14:40:57;13.25;;;10.38;;
26530;SDS011;14201;43.188;24.160;2022-11-15T14:43:23;13.45;;;10.77;;
26530;SDS011;14201;43.188;24.160;2022-11-15T14:45:49;12.07;;;10.18;;
26530;SDS011;14201;43.188;24.160;2022-11-15T14:48:15;12.93;;;10.10;;
26530;SDS011;14201;43.188;24.160;2022-11-15T14:50:41;11.27;;;9.93;;
26530;SDS011;14201;43.188;24.160;2022-11-15T14:53:06;13.75;;;10.02;;
26530;SDS011;14201;43.188;24.160;2022-11-15T14:55:36;12.60;;;10.27;;
26530;SDS011;14201;43.188;24.160;2022-11-15T14:58:02;11.35;;;10.10;;
26530;SDS011;14201;43.188;24.160;2022-11-15T15:00:32;11.20;;;9.90;;
26530;SDS011;14201;43.188;24.160;2022-11-15T15:02:58;12.40;;;10.63;;
26530;SDS011;14201;43.188;24.160;2022-11-15T15:05:27;11.95;;;10.40;;
26530;SDS011;14201;43.188;24.160;2022-11-15T15:07:55;12.43;;;9.93;;
26530;SDS011;14201;43.188;24.160;2022-11-15T15:10:21;13.18;;;10.75;;
26530;SDS011;14201;43.188;24.160;2022-11-15T15:12:47;13.05;;;10.90;;
26530;SDS011;14201;43.188;24.160;2022-11-15T15:15:18;12.02;;;10.77;;
26530;SDS011;14201;43.188;24.160;2022-11-15T15:17:49;13.02;;;11.63;;
26530;SDS011;14201;43.188;24.160;2022-11-15T15:20:15;13.40;;;11.38;;
26530;SDS011;14201;43.188;24.160;2022-11-15T15:22:41;17.17;;;13.38;;
26530;SDS011;14201;43.188;24.160;2022-11-15T15:25:28;14.18;;;11.63;;
26530;SDS011;14201;43.188;24.160;2022-11-15T15:27:55;13.32;;;11.38;;
26530;SDS011;14201;43.188;24.160;2022-11-15T15:30:25;14.27;;;12.07;;
26530;SDS011;14201;43.188;24.160;2022-11-15T15:32:52;16.10;;;12.23;;
26530;SDS011;14201;43.188;24.160;2022-11-15T15:35:19;15.48;;;13.07;;
26530;SDS011;14201;43.188;24.160;2022-11-15T15:37:45;15.57;;;11.90;;
26530;SDS011;14201;43.188;24.160;2022-11-15T15:40:19;12.73;;;10.80;;
26530;SDS011;14201;43.188;24.160;2022-11-15T15:42:47;14.02;;;11.70;;
26530;SDS011;14201;43.188;24.160;2022-11-15T15:45:13;17.15;;;13.35;;
26530;SDS011;14201;43.188;24.160;2022-11-15T15:47:40;15.23;;;12.95;;
26530;SDS011;14201;43.188;24.160;2022-11-15T15:50:25;18.83;;;13.85;;
26530;SDS011;14201;43.188;24.160;2022-11-15T15:52:59;16.98;;;13.00;;
26530;SDS011;14201;43.188;24.160;2022-11-15T15:55:26;16.88;;;12.95;;
26530;SDS011;14201;43.188;24.160;2022-11-15T15:57:52;15.57;;;13.23;;
26530;SDS011;14201;43.188;24.160;2022-11-15T16:00:19;18.02;;;13.10;;
26530;SDS011;14201;43.188;24.160;2022-11-15T16:02:48;15.10;;;12.50;;
26530;SDS011;14201;43.188;24.160;2022-11-15T16:05:14;14.88;;;12.77;;
26530;SDS011;14201;43.188;24.160;2022-11-15T16:07:39;16.00;;;13.07;;
26530;SDS011;14201;43.188;24.160;2022-11-15T16:12:50;14.05;;;12.30;;
26530;SDS011;14201;43.188;24.160;2022-11-15T16:15:16;15.98;;;13.27;;
26530;SDS011;14201;43.188;24.160;2022-11-15T16:17:56;14.90;;;12.82;;
26530;SDS011;14201;43.188;24.160;2022-11-15T16:20:37;15.73;;;12.55;;
26530;SDS011;14201;43.188;24.160;2022-11-15T16:23:08;14.52;;;12.68;;
26530;SDS011;14201;43.188;24.160;2022-11-15T16:25:37;15.68;;;13.02;;
26530;SDS011;14201;43.188;24.160;2022-11-15T16:28:26;14.73;;;12.23;;
26530;SDS011;14201;43.188;24.160;2022-11-15T16:31:00;14.95;;;12.13;;
26530;SDS011;14201;43.188;24.160;2022-11-15T16:33:28;14.57;;;12.27;;
26530;SDS011;14201;43.188;24.160;2022-11-15T16:35:54;13.05;;;11.55;;
26530;SDS011;14201;43.188;24.160;2022-11-15T16:38:20;14.95;;;12.48;;
26530;SDS011;14201;43.188;24.160;2022-11-15T16:40:45;14.93;;;11.70;;
26530;SDS011;14201;43.188;24.160;2022-11-15T16:43:11;14.98;;;12.30;;
26530;SDS011;14201;43.188;24.160;2022-11-15T16:45:37;16.52;;;11.80;;
26530;SDS011;14201;43.188;24.160;2022-11-15T16:48:03;15.18;;;12.20;;
26530;SDS011;14201;43.188;24.160;2022-11-15T16:50:30;13.02;;;11.20;;
26530;SDS011;14201;43.188;24.160;2022-11-15T16:52:59;10.75;;;9.18;;
26530;SDS011;14201;43.188;24.160;2022-11-15T16:55:27;12.48;;;11.18;;
26530;SDS011;14201;43.188;24.160;2022-11-15T16:57:55;14.32;;;12.07;;
26530;SDS011;14201;43.188;24.160;2022-11-15T17:00:24;14.77;;;12.23;;
26530;SDS011;14201;43.188;24.160;2022-11-15T17:02:50;17.02;;;13.10;;
26530;SDS011;14201;43.188;24.160;2022-11-15T17:05:18;17.15;;;13.52;;
26530;SDS011;14201;43.188;24.160;2022-11-15T17:07:49;16.98;;;13.02;;
26530;SDS011;14201;43.188;24.160;2022-11-15T17:10:22;16.42;;;13.60;;
26530;SDS011;14201;43.188;24.160;2022-11-15T17:12:53;15.75;;;14.05;;